sensor_id;sensor_type;location;lat;lon;timestamp;temperature;humidity
5520;DHT22;2782;52.362;10.012;2022-10-16T00:01:58;18.80;99.90
5520;DHT22;2782;52.362;10.012;2022-10-16T00:08:40;18.80;99.90
5520;DHT22;2782;52.362;10.012;2022-10-16T00:15:23;18.80;99.90
5520;DHT22;2782;52.362;10.012;2022-10-16T00:22:05;18.80;99.90
5520;DHT22;2782;52.362;10.012;2022-10-16T00:28:47;18.80;99.90
5520;DHT22;2782;52.362;10.012;2022-10-16T00:35:31;18.80;99.90
5520;DHT22;2782;52.362;10.012;2022-10-16T00:42:15;18.80;99.90
5520;DHT22;2782;52.362;10.012;2022-10-16T00:49:02;18.80;99.90
5520;DHT22;2782;52.362;10.012;2022-10-16T00:55:45;18.70;99.90
5520;DHT22;2782;52.362;10.012;2022-10-16T01:02:27;18.70;99.90
5520;DHT22;2782;52.362;10.012;2022-10-16T01:09:16;18.70;99.90
5520;DHT22;2782;52.362;10.012;2022-10-16T01:16:04;18.70;99.90
5520;DHT22;2782;52.362;10.012;2022-10-16T01:23:04;18.70;99.90
5520;DHT22;2782;52.362;10.012;2022-10-16T01:29:53;18.70;99.90
5520;DHT22;2782;52.362;10.012;2022-10-16T01:36:38;18.70;99.90
5520;DHT22;2782;52.362;10.012;2022-10-16T01:43:25;18.70;99.90
5520;DHT22;2782;52.362;10.012;2022-10-16T01:50:10;18.70;99.90
5520;DHT22;2782;52.362;10.012;2022-10-16T01:56:53;18.70;99.90
5520;DHT22;2782;52.362;10.012;2022-10-16T02:03:37;18.70;99.90
5520;DHT22;2782;52.362;10.012;2022-10-16T02:10:23;18.60;99.90
5520;DHT22;2782;52.362;10.012;2022-10-16T02:17:10;18.60;99.90
5520;DHT22;2782;52.362;10.012;2022-10-16T02:23:57;18.60;99.90
5520;DHT22;2782;52.362;10.012;2022-10-16T02:30:45;18.60;99.90
5520;DHT22;2782;52.362;10.012;2022-10-16T02:37:28;18.60;99.90
5520;DHT22;2782;52.362;10.012;2022-10-16T02:44:11;18.60;99.90
5520;DHT22;2782;52.362;10.012;2022-10-16T02:50:54;18.60;99.90
5520;DHT22;2782;52.362;10.012;2022-10-16T02:57:35;18.60;99.90
5520;DHT22;2782;52.362;10.012;2022-10-16T03:04:17;18.60;99.90
5520;DHT22;2782;52.362;10.012;2022-10-16T03:11:00;18.60;99.90
5520;DHT22;2782;52.362;10.012;2022-10-16T03:17:42;18.60;99.90
5520;DHT22;2782;52.362;10.012;2022-10-16T03:24:23;18.60;99.90
5520;DHT22;2782;52.362;10.012;2022-10-16T03:31:06;18.60;99.90
5520;DHT22;2782;52.362;10.012;2022-10-16T03:37:49;18.50;99.90
5520;DHT22;2782;52.362;10.012;2022-10-16T03:44:30;18.50;99.90
5520;DHT22;2782;52.362;10.012;2022-10-16T03:51:14;18.60;99.90
5520;DHT22;2782;52.362;10.012;2022-10-16T03:57:55;18.50;99.90
5520;DHT22;2782;52.362;10.012;2022-10-16T04:04:37;18.50;99.90
5520;DHT22;2782;52.362;10.012;2022-10-16T04:11:20;18.50;99.90
5520;DHT22;2782;52.362;10.012;2022-10-16T04:18:02;18.50;99.90
5520;DHT22;2782;52.362;10.012;2022-10-16T04:24:44;18.50;99.90
5520;DHT22;2782;52.362;10.012;2022-10-16T04:31:27;18.50;99.90
5520;DHT22;2782;52.362;10.012;2022-10-16T04:38:09;18.50;99.90
5520;DHT22;2782;52.362;10.012;2022-10-16T04:44:50;18.50;99.90
5520;DHT22;2782;52.362;10.012;2022-10-16T04:51:33;18.50;99.90
5520;DHT22;2782;52.362;10.012;2022-10-16T04:58:15;18.50;99.90
5520;DHT22;2782;52.362;10.012;2022-10-16T05:04:57;18.50;99.90
5520;DHT22;2782;52.362;10.012;2022-10-16T05:11:40;18.50;99.90
5520;DHT22;2782;52.362;10.012;2022-10-16T05:18:21;18.50;99.90
5520;DHT22;2782;52.362;10.012;2022-10-16T05:25:04;18.50;99.90
5520;DHT22;2782;52.362;10.012;2022-10-16T05:31:50;18.50;99.90
5520;DHT22;2782;52.362;10.012;2022-10-16T05:38:32;18.50;99.90
5520;DHT22;2782;52.362;10.012;2022-10-16T05:45:13;18.50;99.90
5520;DHT22;2782;52.362;10.012;2022-10-16T05:51:56;18.50;99.90
5520;DHT22;2782;52.362;10.012;2022-10-16T05:58:39;18.40;98.30
5520;DHT22;2782;52.362;10.012;2022-10-16T06:05:21;18.40;99.90
5520;DHT22;2782;52.362;10.012;2022-10-16T06:12:04;18.50;99.90
5520;DHT22;2782;52.362;10.012;2022-10-16T06:18:46;18.50;99.90
5520;DHT22;2782;52.362;10.012;2022-10-16T06:25:28;18.50;99.90
5520;DHT22;2782;52.362;10.012;2022-10-16T06:32:11;18.50;99.90
5520;DHT22;2782;52.362;10.012;2022-10-16T06:38:53;18.60;99.90
5520;DHT22;2782;52.362;10.012;2022-10-16T06:45:34;18.60;99.90
5520;DHT22;2782;52.362;10.012;2022-10-16T06:52:17;18.60;99.90
5520;DHT22;2782;52.362;10.012;2022-10-16T06:58:59;18.60;99.90
5520;DHT22;2782;52.362;10.012;2022-10-16T07:05:42;18.60;99.90
5520;DHT22;2782;52.362;10.012;2022-10-16T07:12:25;18.60;99.90
5520;DHT22;2782;52.362;10.012;2022-10-16T07:19:08;18.60;99.90
5520;DHT22;2782;52.362;10.012;2022-10-16T07:25:55;18.70;99.90
5520;DHT22;2782;52.362;10.012;2022-10-16T07:32:38;18.90;99.90
5520;DHT22;2782;52.362;10.012;2022-10-16T07:39:20;19.10;99.90
5520;DHT22;2782;52.362;10.012;2022-10-16T07:46:01;19.20;99.90
5520;DHT22;2782;52.362;10.012;2022-10-16T07:52:45;19.40;99.90
5520;DHT22;2782;52.362;10.012;2022-10-16T07:59:26;19.50;99.90
5520;DHT22;2782;52.362;10.012;2022-10-16T08:06:08;19.60;99.90
5520;DHT22;2782;52.362;10.012;2022-10-16T08:12:51;19.70;99.90
5520;DHT22;2782;52.362;10.012;2022-10-16T08:19:33;19.70;99.90
5520;DHT22;2782;52.362;10.012;2022-10-16T08:26:15;19.70;99.90
5520;DHT22;2782;52.362;10.012;2022-10-16T08:32:58;19.60;99.90
5520;DHT22;2782;52.362;10.012;2022-10-16T08:39:40;19.50;99.90
5520;DHT22;2782;52.362;10.012;2022-10-16T08:46:30;19.50;99.90
5520;DHT22;2782;52.362;10.012;2022-10-16T08:53:19;19.40;99.90
5520;DHT22;2782;52.362;10.012;2022-10-16T09:00:11;19.40;99.90
5520;DHT22;2782;52.362;10.012;2022-10-16T09:06:56;19.40;99.90
5520;DHT22;2782;52.362;10.012;2022-10-16T09:13:50;19.40;99.90
5520;DHT22;2782;52.362;10.012;2022-10-16T09:20:50;19.40;99.90
5520;DHT22;2782;52.362;10.012;2022-10-16T09:27:32;19.50;99.90
5520;DHT22;2782;52.362;10.012;2022-10-16T09:34:23;19.40;99.90
5520;DHT22;2782;52.362;10.012;2022-10-16T09:41:15;19.40;99.90
5520;DHT22;2782;52.362;10.012;2022-10-16T09:47:57;19.40;99.90
5520;DHT22;2782;52.362;10.012;2022-10-16T09:54:51;19.30;99.90
5520;DHT22;2782;52.362;10.012;2022-10-16T10:01:36;19.30;99.90
5520;DHT22;2782;52.362;10.012;2022-10-16T10:08:19;19.30;99.90
5520;DHT22;2782;52.362;10.012;2022-10-16T10:15:07;19.30;99.90
5520;DHT22;2782;52.362;10.012;2022-10-16T10:21:49;19.20;99.90
5520;DHT22;2782;52.362;10.012;2022-10-16T10:28:54;19.30;99.90
5520;DHT22;2782;52.362;10.012;2022-10-16T10:35:43;19.30;99.90
5520;DHT22;2782;52.362;10.012;2022-10-16T10:42:29;19.30;99.90
5520;DHT22;2782;52.362;10.012;2022-10-16T10:49:24;19.20;99.90
5520;DHT22;2782;52.362;10.012;2022-10-16T10:56:21;19.30;99.90
5520;DHT22;2782;52.362;10.012;2022-10-16T11:03:13;19.30;99.90
5520;DHT22;2782;52.362;10.012;2022-10-16T11:10:03;19.30;99.90
5520;DHT22;2782;52.362;10.012;2022-10-16T11:16:51;19.20;99.90
5520;DHT22;2782;52.362;10.012;2022-10-16T11:23:40;19.20;99.90
5520;DHT22;2782;52.362;10.012;2022-10-16T11:30:25;19.30;99.90
5520;DHT22;2782;52.362;10.012;2022-10-16T11:37:12;19.30;99.90
5520;DHT22;2782;52.362;10.012;2022-10-16T11:44:09;19.30;99.90
5520;DHT22;2782;52.362;10.012;2022-10-16T11:50:57;19.30;99.90
5520;DHT22;2782;52.362;10.012;2022-10-16T11:57:45;19.30;99.90
5520;DHT22;2782;52.362;10.012;2022-10-16T12:04:32;19.40;99.90
5520;DHT22;2782;52.362;10.012;2022-10-16T12:11:36;19.40;99.90
5520;DHT22;2782;52.362;10.012;2022-10-16T12:18:23;19.40;99.90
5520;DHT22;2782;52.362;10.012;2022-10-16T12:25:17;19.40;99.90
5520;DHT22;2782;52.362;10.012;2022-10-16T12:32:00;19.50;99.90
5520;DHT22;2782;52.362;10.012;2022-10-16T12:38:48;19.50;99.90
5520;DHT22;2782;52.362;10.012;2022-10-16T12:45:32;19.50;99.90
5520;DHT22;2782;52.362;10.012;2022-10-16T12:52:26;19.60;99.90
5520;DHT22;2782;52.362;10.012;2022-10-16T12:59:16;19.70;99.90
5520;DHT22;2782;52.362;10.012;2022-10-16T13:06:13;19.80;99.90
5520;DHT22;2782;52.362;10.012;2022-10-16T13:13:07;19.90;99.90
5520;DHT22;2782;52.362;10.012;2022-10-16T13:20:02;20.00;99.90
5520;DHT22;2782;52.362;10.012;2022-10-16T13:26:52;20.00;99.90
5520;DHT22;2782;52.362;10.012;2022-10-16T13:33:38;20.10;99.90
5520;DHT22;2782;52.362;10.012;2022-10-16T13:40:23;20.10;99.90
5520;DHT22;2782;52.362;10.012;2022-10-16T13:47:05;20.20;99.90
5520;DHT22;2782;52.362;10.012;2022-10-16T13:53:47;20.20;99.90
5520;DHT22;2782;52.362;10.012;2022-10-16T14:00:30;20.20;99.90
5520;DHT22;2782;52.362;10.012;2022-10-16T14:07:14;20.20;99.90
5520;DHT22;2782;52.362;10.012;2022-10-16T14:13:57;20.20;99.90
5520;DHT22;2782;52.362;10.012;2022-10-16T14:20:40;20.10;99.90
5520;DHT22;2782;52.362;10.012;2022-10-16T14:27:27;20.20;99.90
5520;DHT22;2782;52.362;10.012;2022-10-16T14:34:26;20.20;99.90
5520;DHT22;2782;52.362;10.012;2022-10-16T14:41:09;20.30;99.90
5520;DHT22;2782;52.362;10.012;2022-10-16T14:47:54;20.40;99.90
5520;DHT22;2782;52.362;10.012;2022-10-16T14:54:36;20.40;99.90
5520;DHT22;2782;52.362;10.012;2022-10-16T15:01:19;20.30;99.90
5520;DHT22;2782;52.362;10.012;2022-10-16T15:08:01;20.20;99.90
5520;DHT22;2782;52.362;10.012;2022-10-16T15:14:43;20.00;99.90
5520;DHT22;2782;52.362;10.012;2022-10-16T15:21:27;20.00;99.90
5520;DHT22;2782;52.362;10.012;2022-10-16T15:28:11;19.90;99.90
5520;DHT22;2782;52.362;10.012;2022-10-16T15:34:52;19.90;99.90
5520;DHT22;2782;52.362;10.012;2022-10-16T15:41:35;19.80;99.90
5520;DHT22;2782;52.362;10.012;2022-10-16T15:48:17;19.90;99.90
5520;DHT22;2782;52.362;10.012;2022-10-16T15:54:59;19.90;99.90
5520;DHT22;2782;52.362;10.012;2022-10-16T16:01:42;19.90;99.90
5520;DHT22;2782;52.362;10.012;2022-10-16T16:08:24;19.90;99.90
5520;DHT22;2782;52.362;10.012;2022-10-16T16:15:08;19.90;99.90
5520;DHT22;2782;52.362;10.012;2022-10-16T16:21:51;19.90;99.90
5520;DHT22;2782;52.362;10.012;2022-10-16T16:28:33;19.90;99.90
5520;DHT22;2782;52.362;10.012;2022-10-16T16:35:15;19.90;99.90
5520;DHT22;2782;52.362;10.012;2022-10-16T16:41:58;20.00;99.90
5520;DHT22;2782;52.362;10.012;2022-10-16T16:48:40;20.00;99.90
5520;DHT22;2782;52.362;10.012;2022-10-16T16:55:21;20.00;99.90
5520;DHT22;2782;52.362;10.012;2022-10-16T17:02:05;20.00;99.90
5520;DHT22;2782;52.362;10.012;2022-10-16T17:08:47;20.00;99.90
5520;DHT22;2782;52.362;10.012;2022-10-16T17:15:29;20.00;99.90
5520;DHT22;2782;52.362;10.012;2022-10-16T17:22:12;20.10;99.90
5520;DHT22;2782;52.362;10.012;2022-10-16T17:28:55;20.30;99.90
5520;DHT22;2782;52.362;10.012;2022-10-16T17:35:38;20.40;99.90
5520;DHT22;2782;52.362;10.012;2022-10-16T17:42:21;20.50;99.90
5520;DHT22;2782;52.362;10.012;2022-10-16T17:49:03;20.50;99.90
5520;DHT22;2782;52.362;10.012;2022-10-16T17:55:45;20.50;99.90
5520;DHT22;2782;52.362;10.012;2022-10-16T18:02:28;20.40;99.90
5520;DHT22;2782;52.362;10.012;2022-10-16T18:09:11;20.20;99.90
5520;DHT22;2782;52.362;10.012;2022-10-16T18:15:59;20.10;99.90
5520;DHT22;2782;52.362;10.012;2022-10-16T18:22:42;20.10;99.90
5520;DHT22;2782;52.362;10.012;2022-10-16T18:29:25;20.10;99.90
5520;DHT22;2782;52.362;10.012;2022-10-16T18:36:10;20.20;99.90
5520;DHT22;2782;52.362;10.012;2022-10-16T18:42:53;20.20;99.90
5520;DHT22;2782;52.362;10.012;2022-10-16T18:49:35;20.20;99.90
5520;DHT22;2782;52.362;10.012;2022-10-16T18:56:18;20.20;99.90
5520;DHT22;2782;52.362;10.012;2022-10-16T19:03:01;20.20;99.90
5520;DHT22;2782;52.362;10.012;2022-10-16T19:09:43;20.20;99.90
5520;DHT22;2782;52.362;10.012;2022-10-16T19:16:27;20.20;99.90
5520;DHT22;2782;52.362;10.012;2022-10-16T19:23:10;20.20;99.90
5520;DHT22;2782;52.362;10.012;2022-10-16T19:29:52;20.10;99.90
5520;DHT22;2782;52.362;10.012;2022-10-16T19:36:35;20.10;99.90
5520;DHT22;2782;52.362;10.012;2022-10-16T19:43:18;20.10;99.90
5520;DHT22;2782;52.362;10.012;2022-10-16T19:50:00;20.00;99.90
5520;DHT22;2782;52.362;10.012;2022-10-16T19:56:42;20.00;99.90
5520;DHT22;2782;52.362;10.012;2022-10-16T20:03:26;20.00;99.90
5520;DHT22;2782;52.362;10.012;2022-10-16T20:10:08;20.10;99.90
5520;DHT22;2782;52.362;10.012;2022-10-16T20:16:50;20.10;99.90
5520;DHT22;2782;52.362;10.012;2022-10-16T20:23:34;20.10;99.90
5520;DHT22;2782;52.362;10.012;2022-10-16T20:30:15;20.20;99.90
5520;DHT22;2782;52.362;10.012;2022-10-16T20:36:57;20.30;99.90
5520;DHT22;2782;52.362;10.012;2022-10-16T20:43:42;20.20;98.80
5520;DHT22;2782;52.362;10.012;2022-10-16T20:50:27;20.00;99.30
5520;DHT22;2782;52.362;10.012;2022-10-16T20:57:09;19.90;99.90
5520;DHT22;2782;52.362;10.012;2022-10-16T21:03:53;19.90;99.90
5520;DHT22;2782;52.362;10.012;2022-10-16T21:10:35;19.80;99.90
5520;DHT22;2782;52.362;10.012;2022-10-16T21:17:18;19.80;99.90
5520;DHT22;2782;52.362;10.012;2022-10-16T21:24:01;19.80;99.90
5520;DHT22;2782;52.362;10.012;2022-10-16T21:30:43;19.80;99.90
5520;DHT22;2782;52.362;10.012;2022-10-16T21:37:25;19.80;99.90
5520;DHT22;2782;52.362;10.012;2022-10-16T21:44:10;19.80;99.90
5520;DHT22;2782;52.362;10.012;2022-10-16T21:50:52;19.80;99.90
5520;DHT22;2782;52.362;10.012;2022-10-16T21:57:34;19.80;99.90
5520;DHT22;2782;52.362;10.012;2022-10-16T22:04:17;19.80;99.90
5520;DHT22;2782;52.362;10.012;2022-10-16T22:11:03;19.80;99.90
5520;DHT22;2782;52.362;10.012;2022-10-16T22:17:45;19.80;99.90
5520;DHT22;2782;52.362;10.012;2022-10-16T22:24:28;19.80;99.90
5520;DHT22;2782;52.362;10.012;2022-10-16T22:31:11;19.70;99.90
5520;DHT22;2782;52.362;10.012;2022-10-16T22:37:53;19.80;99.90
5520;DHT22;2782;52.362;10.012;2022-10-16T22:44:37;19.70;99.90
5520;DHT22;2782;52.362;10.012;2022-10-16T22:51:21;19.70;99.90
5520;DHT22;2782;52.362;10.012;2022-10-16T22:58:03;19.70;99.90
5520;DHT22;2782;52.362;10.012;2022-10-16T23:04:46;19.70;99.90
5520;DHT22;2782;52.362;10.012;2022-10-16T23:11:28;19.70;99.90
5520;DHT22;2782;52.362;10.012;2022-10-16T23:18:10;19.70;99.90
5520;DHT22;2782;52.362;10.012;2022-10-16T23:24:53;19.70;99.90
5520;DHT22;2782;52.362;10.012;2022-10-16T23:31:35;19.70;99.90
5520;DHT22;2782;52.362;10.012;2022-10-16T23:38:18;19.60;99.90
5520;DHT22;2782;52.362;10.012;2022-10-16T23:45:01;19.60;99.90
5520;DHT22;2782;52.362;10.012;2022-10-16T23:51:43;19.60;99.90
5520;DHT22;2782;52.362;10.012;2022-10-16T23:58:24;19.60;99.90
